Terminal Aerodrome Forecast
Issued by NWS

Home | Current Version | Previous Version | Text Only | Print | Product List | Glossary On
Versions: 1 2 3 4 5 6 7 8 9 10 11 12 13 14 15 16 17 18 19 20 21 22 23 24 25 26 27 28 29 30 31 32 33 34 35 36 37 38 39 40 41 42
498
FTUS43 KPAH 170537
TAFOWB
TAF
KOWB 170537Z 1706/1806 18013KT P6SM -SHRA FEW025 BKN060
     FM170800 22012KT P6SM OVC015
     FM171300 25011KT P6SM BKN020
     FM171900 27010KT P6SM SCT025 BKN035=

USA.gov is the U.S. government's official web portal to all federal, state and local government web resources and services.